Terminal Aerodrome Forecast
Issued by NWS

Home | Current Version | Previous Version | Text Only | Print | Product List | Glossary Off
Versions: 1 2 3 4 5 6 7 8 9 10 11 12 13 14 15 16 17 18 19

000
FTUS43 KBIS 191500 AAB
TAFJMS
TAF AMD
KJMS 191500Z 1915/2012 16006KT P6SM SKC
      TEMPO 1915/1918 4SM BR SKC
     FM200000 16008KT 2SM BR SCT060
     FM200200 17009KT 1 1/2SM BR BKN035
     FM200700 17009KT 2SM BR BKN010
     FM201000 16007KT 2SM BR BKN003=

USA.gov is the U.S. government's official web portal to all federal, state and local government web resources and services.